sensor_id;sensor_type;location;lat;lon;timestamp;P1;durP1;ratioP1;P2;durP2;ratioP2
64816;SDS011;69411;45.656;11.740;2023-07-13T00:01:57;4.10;;;2.00;;
64816;SDS011;69411;45.656;11.740;2023-07-13T00:04:24;5.53;;;2.67;;
64816;SDS011;69411;45.656;11.740;2023-07-13T00:06:51;5.07;;;1.92;;
64816;SDS011;69411;45.656;11.740;2023-07-13T00:09:18;3.58;;;1.90;;
64816;SDS011;69411;45.656;11.740;2023-07-13T00:11:45;5.20;;;2.10;;
64816;SDS011;69411;45.656;11.740;2023-07-13T00:14:16;3.70;;;1.88;;
64816;SDS011;69411;45.656;11.740;2023-07-13T00:16:42;2.78;;;1.63;;
64816;SDS011;69411;45.656;11.740;2023-07-13T00:19:09;2.50;;;1.50;;
64816;SDS011;69411;45.656;11.740;2023-07-13T00:21:37;2.08;;;1.60;;
64816;SDS011;69411;45.656;11.740;2023-07-13T00:24:06;4.78;;;1.90;;
64816;SDS011;69411;45.656;11.740;2023-07-13T00:26:38;3.70;;;2.05;;
64816;SDS011;69411;45.656;11.740;2023-07-13T00:29:05;5.43;;;2.25;;
64816;SDS011;69411;45.656;11.740;2023-07-13T00:31:34;4.82;;;2.30;;
64816;SDS011;69411;45.656;11.740;2023-07-13T00:34:01;7.25;;;2.40;;
64816;SDS011;69411;45.656;11.740;2023-07-13T00:36:29;8.32;;;3.25;;
64816;SDS011;69411;45.656;11.740;2023-07-13T00:38:55;7.88;;;2.80;;
64816;SDS011;69411;45.656;11.740;2023-07-13T00:41:22;5.63;;;2.60;;
64816;SDS011;69411;45.656;11.740;2023-07-13T00:43:48;8.48;;;3.22;;
64816;SDS011;69411;45.656;11.740;2023-07-13T00:46:19;9.50;;;2.78;;
64816;SDS011;69411;45.656;11.740;2023-07-13T00:48:50;5.22;;;2.78;;
64816;SDS011;69411;45.656;11.740;2023-07-13T00:51:20;8.10;;;2.67;;
64816;SDS011;69411;45.656;11.740;2023-07-13T00:53:51;3.63;;;2.65;;
64816;SDS011;69411;45.656;11.740;2023-07-13T00:56:19;4.82;;;2.60;;
64816;SDS011;69411;45.656;11.740;2023-07-13T00:58:45;5.43;;;2.65;;
64816;SDS011;69411;45.656;11.740;2023-07-13T01:01:12;5.35;;;2.80;;
64816;SDS011;69411;45.656;11.740;2023-07-13T01:03:38;7.82;;;2.90;;
64816;SDS011;69411;45.656;11.740;2023-07-13T01:06:05;4.85;;;2.55;;
64816;SDS011;69411;45.656;11.740;2023-07-13T01:08:32;5.13;;;2.70;;
64816;SDS011;69411;45.656;11.740;2023-07-13T01:10:58;5.18;;;2.30;;
64816;SDS011;69411;45.656;11.740;2023-07-13T01:13:24;6.30;;;2.85;;
64816;SDS011;69411;45.656;11.740;2023-07-13T01:15:51;6.75;;;2.67;;
64816;SDS011;69411;45.656;11.740;2023-07-13T01:18:19;4.15;;;2.63;;
64816;SDS011;69411;45.656;11.740;2023-07-13T01:23:20;8.57;;;3.00;;
64816;SDS011;69411;45.656;11.740;2023-07-13T01:25:47;6.93;;;3.25;;
64816;SDS011;69411;45.656;11.740;2023-07-13T01:28:13;8.55;;;3.35;;
64816;SDS011;69411;45.656;11.740;2023-07-13T01:30:39;8.40;;;3.55;;
64816;SDS011;69411;45.656;11.740;2023-07-13T01:33:06;7.20;;;3.50;;
64816;SDS011;69411;45.656;11.740;2023-07-13T01:35:33;8.73;;;3.80;;
64816;SDS011;69411;45.656;11.740;2023-07-13T01:37:59;8.05;;;3.47;;
64816;SDS011;69411;45.656;11.740;2023-07-13T01:40:26;7.25;;;3.05;;
64816;SDS011;69411;45.656;11.740;2023-07-13T01:42:53;7.75;;;3.22;;
64816;SDS011;69411;45.656;11.740;2023-07-13T01:45:19;7.45;;;3.38;;
64816;SDS011;69411;45.656;11.740;2023-07-13T01:47:45;10.48;;;3.67;;
64816;SDS011;69411;45.656;11.740;2023-07-13T01:50:11;6.85;;;2.92;;
64816;SDS011;69411;45.656;11.740;2023-07-13T01:52:37;5.95;;;3.28;;
64816;SDS011;69411;45.656;11.740;2023-07-13T01:55:03;9.15;;;3.40;;
64816;SDS011;69411;45.656;11.740;2023-07-13T01:57:29;4.90;;;2.85;;
64816;SDS011;69411;45.656;11.740;2023-07-13T01:59:55;5.82;;;2.90;;
64816;SDS011;69411;45.656;11.740;2023-07-13T02:02:21;6.32;;;3.05;;
64816;SDS011;69411;45.656;11.740;2023-07-13T02:04:47;5.90;;;2.72;;
64816;SDS011;69411;45.656;11.740;2023-07-13T02:07:13;4.38;;;2.42;;
64816;SDS011;69411;45.656;11.740;2023-07-13T02:09:40;4.82;;;2.38;;
64816;SDS011;69411;45.656;11.740;2023-07-13T02:12:07;4.50;;;2.72;;
64816;SDS011;69411;45.656;11.740;2023-07-13T02:14:33;5.28;;;2.55;;
64816;SDS011;69411;45.656;11.740;2023-07-13T02:17:00;5.15;;;2.80;;
64816;SDS011;69411;45.656;11.740;2023-07-13T02:19:26;6.10;;;2.60;;
64816;SDS011;69411;45.656;11.740;2023-07-13T02:21:52;3.05;;;2.10;;
64816;SDS011;69411;45.656;11.740;2023-07-13T02:24:17;7.95;;;3.00;;
64816;SDS011;69411;45.656;11.740;2023-07-13T02:26:46;4.55;;;2.50;;
64816;SDS011;69411;45.656;11.740;2023-07-13T02:29:13;4.22;;;2.08;;
64816;SDS011;69411;45.656;11.740;2023-07-13T02:31:39;5.45;;;2.55;;
64816;SDS011;69411;45.656;11.740;2023-07-13T02:34:05;4.32;;;2.35;;
64816;SDS011;69411;45.656;11.740;2023-07-13T02:36:31;4.95;;;2.80;;
64816;SDS011;69411;45.656;11.740;2023-07-13T02:39:00;6.60;;;2.70;;
64816;SDS011;69411;45.656;11.740;2023-07-13T02:41:28;4.68;;;2.38;;
64816;SDS011;69411;45.656;11.740;2023-07-13T02:43:54;5.57;;;2.78;;
64816;SDS011;69411;45.656;11.740;2023-07-13T02:48:54;3.75;;;2.33;;
64816;SDS011;69411;45.656;11.740;2023-07-13T02:51:20;5.43;;;2.22;;
64816;SDS011;69411;45.656;11.740;2023-07-13T02:53:46;3.80;;;2.22;;
64816;SDS011;69411;45.656;11.740;2023-07-13T02:56:12;4.53;;;2.45;;
64816;SDS011;69411;45.656;11.740;2023-07-13T02:58:38;4.70;;;2.55;;
64816;SDS011;69411;45.656;11.740;2023-07-13T03:01:07;6.32;;;2.72;;
64816;SDS011;69411;45.656;11.740;2023-07-13T03:03:35;4.10;;;2.55;;
64816;SDS011;69411;45.656;11.740;2023-07-13T03:06:02;4.40;;;2.78;;
64816;SDS011;69411;45.656;11.740;2023-07-13T03:08:30;6.30;;;2.72;;
64816;SDS011;69411;45.656;11.740;2023-07-13T03:11:02;4.88;;;2.63;;
64816;SDS011;69411;45.656;11.740;2023-07-13T03:13:33;4.70;;;2.60;;
64816;SDS011;69411;45.656;11.740;2023-07-13T03:16:00;5.82;;;2.90;;
64816;SDS011;69411;45.656;11.740;2023-07-13T03:18:26;3.17;;;2.30;;
64816;SDS011;69411;45.656;11.740;2023-07-13T03:20:53;5.30;;;2.60;;
64816;SDS011;69411;45.656;11.740;2023-07-13T03:23:20;6.00;;;2.88;;
64816;SDS011;69411;45.656;11.740;2023-07-13T03:25:47;6.90;;;3.08;;
64816;SDS011;69411;45.656;11.740;2023-07-13T03:28:14;6.43;;;3.53;;
64816;SDS011;69411;45.656;11.740;2023-07-13T03:30:40;5.95;;;2.80;;
64816;SDS011;69411;45.656;11.740;2023-07-13T03:33:07;4.75;;;3.05;;
64816;SDS011;69411;45.656;11.740;2023-07-13T03:35:33;4.18;;;2.70;;
64816;SDS011;69411;45.656;11.740;2023-07-13T03:38:00;4.97;;;2.90;;
64816;SDS011;69411;45.656;11.740;2023-07-13T03:40:27;4.47;;;2.50;;
64816;SDS011;69411;45.656;11.740;2023-07-13T03:42:53;4.35;;;2.53;;
64816;SDS011;69411;45.656;11.740;2023-07-13T03:45:19;6.15;;;3.00;;
64816;SDS011;69411;45.656;11.740;2023-07-13T03:47:45;6.80;;;3.20;;
64816;SDS011;69411;45.656;11.740;2023-07-13T03:50:11;7.22;;;2.97;;
64816;SDS011;69411;45.656;11.740;2023-07-13T03:52:37;5.13;;;2.90;;
64816;SDS011;69411;45.656;11.740;2023-07-13T03:55:03;6.80;;;2.58;;
64816;SDS011;69411;45.656;11.740;2023-07-13T03:57:31;5.47;;;3.45;;
64816;SDS011;69411;45.656;11.740;2023-07-13T03:59:57;4.65;;;3.20;;
64816;SDS011;69411;45.656;11.740;2023-07-13T04:02:23;6.65;;;3.45;;
64816;SDS011;69411;45.656;11.740;2023-07-13T04:04:49;5.38;;;2.95;;
64816;SDS011;69411;45.656;11.740;2023-07-13T04:07:15;7.43;;;3.40;;
64816;SDS011;69411;45.656;11.740;2023-07-13T04:09:41;6.00;;;3.45;;
64816;SDS011;69411;45.656;11.740;2023-07-13T04:12:07;8.77;;;3.60;;
64816;SDS011;69411;45.656;11.740;2023-07-13T04:14:33;7.63;;;3.60;;
64816;SDS011;69411;45.656;11.740;2023-07-13T04:16:59;6.75;;;3.00;;
64816;SDS011;69411;45.656;11.740;2023-07-13T04:19:25;6.30;;;3.80;;
64816;SDS011;69411;45.656;11.740;2023-07-13T04:21:50;5.57;;;3.85;;
64816;SDS011;69411;45.656;11.740;2023-07-13T04:24:16;5.80;;;3.35;;
64816;SDS011;69411;45.656;11.740;2023-07-13T04:26:42;8.38;;;3.70;;
64816;SDS011;69411;45.656;11.740;2023-07-13T04:29:09;5.50;;;3.80;;
64816;SDS011;69411;45.656;11.740;2023-07-13T04:31:35;7.57;;;4.10;;
64816;SDS011;69411;45.656;11.740;2023-07-13T04:34:01;7.00;;;3.70;;
64816;SDS011;69411;45.656;11.740;2023-07-13T04:36:28;7.10;;;3.75;;
64816;SDS011;69411;45.656;11.740;2023-07-13T04:38:54;6.30;;;3.70;;
64816;SDS011;69411;45.656;11.740;2023-07-13T04:41:20;9.50;;;4.57;;
64816;SDS011;69411;45.656;11.740;2023-07-13T04:43:47;6.18;;;3.80;;
64816;SDS011;69411;45.656;11.740;2023-07-13T04:46:15;8.90;;;4.53;;
64816;SDS011;69411;45.656;11.740;2023-07-13T04:48:46;7.05;;;3.50;;
64816;SDS011;69411;45.656;11.740;2023-07-13T04:51:12;9.73;;;4.75;;
64816;SDS011;69411;45.656;11.740;2023-07-13T04:53:38;7.03;;;3.70;;
64816;SDS011;69411;45.656;11.740;2023-07-13T04:56:04;8.15;;;3.38;;
64816;SDS011;69411;45.656;11.740;2023-07-13T04:58:30;6.65;;;3.90;;
64816;SDS011;69411;45.656;11.740;2023-07-13T05:01:00;6.90;;;3.25;;
64816;SDS011;69411;45.656;11.740;2023-07-13T05:03:28;5.15;;;3.60;;
64816;SDS011;69411;45.656;11.740;2023-07-13T05:05:57;6.03;;;3.30;;
64816;SDS011;69411;45.656;11.740;2023-07-13T05:08:25;5.43;;;3.30;;
64816;SDS011;69411;45.656;11.740;2023-07-13T05:10:51;7.60;;;3.45;;
64816;SDS011;69411;45.656;11.740;2023-07-13T05:13:17;7.78;;;3.45;;
64816;SDS011;69411;45.656;11.740;2023-07-13T05:15:45;5.13;;;2.92;;
64816;SDS011;69411;45.656;11.740;2023-07-13T05:18:11;5.60;;;3.45;;
64816;SDS011;69411;45.656;11.740;2023-07-13T05:20:37;6.30;;;3.58;;
64816;SDS011;69411;45.656;11.740;2023-07-13T05:23:03;5.07;;;3.13;;
64816;SDS011;69411;45.656;11.740;2023-07-13T05:25:29;6.10;;;3.58;;
64816;SDS011;69411;45.656;11.740;2023-07-13T05:27:55;6.50;;;3.60;;
64816;SDS011;69411;45.656;11.740;2023-07-13T05:30:21;7.05;;;3.28;;
64816;SDS011;69411;45.656;11.740;2023-07-13T05:32:47;11.27;;;3.97;;
64816;SDS011;69411;45.656;11.740;2023-07-13T05:35:13;9.25;;;3.78;;
64816;SDS011;69411;45.656;11.740;2023-07-13T05:37:39;5.53;;;2.83;;
64816;SDS011;69411;45.656;11.740;2023-07-13T05:40:05;4.07;;;2.90;;
64816;SDS011;69411;45.656;11.740;2023-07-13T05:42:31;5.25;;;3.15;;
64816;SDS011;69411;45.656;11.740;2023-07-13T05:44:57;4.32;;;2.47;;
64816;SDS011;69411;45.656;11.740;2023-07-13T05:47:23;5.55;;;2.63;;
64816;SDS011;69411;45.656;11.740;2023-07-13T05:49:49;5.07;;;2.67;;
64816;SDS011;69411;45.656;11.740;2023-07-13T05:52:15;7.65;;;2.03;;
64816;SDS011;69411;45.656;11.740;2023-07-13T05:54:41;3.17;;;1.92;;
64816;SDS011;69411;45.656;11.740;2023-07-13T05:57:07;5.75;;;2.30;;
64816;SDS011;69411;45.656;11.740;2023-07-13T05:59:33;2.55;;;1.52;;
64816;SDS011;69411;45.656;11.740;2023-07-13T06:01:59;3.90;;;1.58;;
64816;SDS011;69411;45.656;11.740;2023-07-13T06:04:25;4.45;;;1.48;;
64816;SDS011;69411;45.656;11.740;2023-07-13T06:06:51;3.38;;;2.08;;
64816;SDS011;69411;45.656;11.740;2023-07-13T06:09:17;2.45;;;1.80;;
64816;SDS011;69411;45.656;11.740;2023-07-13T06:11:43;2.20;;;1.58;;
64816;SDS011;69411;45.656;11.740;2023-07-13T06:14:10;2.20;;;1.58;;
64816;SDS011;69411;45.656;11.740;2023-07-13T06:16:36;5.50;;;1.77;;
64816;SDS011;69411;45.656;11.740;2023-07-13T06:19:02;4.28;;;1.70;;
64816;SDS011;69411;45.656;11.740;2023-07-13T06:21:28;2.15;;;1.45;;
64816;SDS011;69411;45.656;11.740;2023-07-13T06:23:54;2.70;;;1.80;;
64816;SDS011;69411;45.656;11.740;2023-07-13T06:26:20;3.50;;;1.75;;
64816;SDS011;69411;45.656;11.740;2023-07-13T06:28:47;2.10;;;1.45;;
64816;SDS011;69411;45.656;11.740;2023-07-13T06:31:13;4.88;;;2.22;;
64816;SDS011;69411;45.656;11.740;2023-07-13T06:33:40;4.50;;;2.00;;
64816;SDS011;69411;45.656;11.740;2023-07-13T06:36:07;2.90;;;1.85;;
64816;SDS011;69411;45.656;11.740;2023-07-13T06:38:34;3.88;;;1.92;;
64816;SDS011;69411;45.656;11.740;2023-07-13T06:41:00;4.78;;;1.95;;
64816;SDS011;69411;45.656;11.740;2023-07-13T06:43:26;4.38;;;1.88;;
64816;SDS011;69411;45.656;11.740;2023-07-13T06:45:54;7.07;;;1.95;;
64816;SDS011;69411;45.656;11.740;2023-07-13T06:48:21;3.92;;;2.15;;
64816;SDS011;69411;45.656;11.740;2023-07-13T06:50:48;3.00;;;1.90;;
64816;SDS011;69411;45.656;11.740;2023-07-13T06:53:15;2.47;;;1.63;;
64816;SDS011;69411;45.656;11.740;2023-07-13T06:55:43;3.53;;;1.60;;
64816;SDS011;69411;45.656;11.740;2023-07-13T06:58:11;4.80;;;1.98;;
64816;SDS011;69411;45.656;11.740;2023-07-13T07:00:37;4.70;;;2.45;;
64816;SDS011;69411;45.656;11.740;2023-07-13T07:03:05;5.63;;;2.55;;
64816;SDS011;69411;45.656;11.740;2023-07-13T07:05:31;4.15;;;2.70;;
64816;SDS011;69411;45.656;11.740;2023-07-13T07:07:57;6.15;;;3.08;;
64816;SDS011;69411;45.656;11.740;2023-07-13T07:10:23;5.97;;;2.70;;
64816;SDS011;69411;45.656;11.740;2023-07-13T07:12:49;3.78;;;2.92;;
64816;SDS011;69411;45.656;11.740;2023-07-13T07:15:15;4.15;;;2.55;;
64816;SDS011;69411;45.656;11.740;2023-07-13T07:17:42;5.80;;;2.53;;
64816;SDS011;69411;45.656;11.740;2023-07-13T07:20:09;7.80;;;2.63;;
64816;SDS011;69411;45.656;11.740;2023-07-13T07:22:35;5.55;;;2.72;;
64816;SDS011;69411;45.656;11.740;2023-07-13T07:25:01;4.57;;;2.40;;
64816;SDS011;69411;45.656;11.740;2023-07-13T07:27:27;5.18;;;2.70;;
64816;SDS011;69411;45.656;11.740;2023-07-13T07:29:53;7.47;;;3.28;;
64816;SDS011;69411;45.656;11.740;2023-07-13T07:32:19;9.07;;;3.40;;
64816;SDS011;69411;45.656;11.740;2023-07-13T07:34:45;5.35;;;3.00;;
64816;SDS011;69411;45.656;11.740;2023-07-13T07:37:12;6.32;;;3.17;;
64816;SDS011;69411;45.656;11.740;2023-07-13T07:39:39;5.50;;;3.20;;
64816;SDS011;69411;45.656;11.740;2023-07-13T07:42:05;5.38;;;3.42;;
64816;SDS011;69411;45.656;11.740;2023-07-13T07:44:32;6.55;;;3.42;;
64816;SDS011;69411;45.656;11.740;2023-07-13T07:46:58;5.22;;;3.15;;
64816;SDS011;69411;45.656;11.740;2023-07-13T07:49:24;4.60;;;3.20;;
64816;SDS011;69411;45.656;11.740;2023-07-13T07:51:50;7.25;;;3.20;;
64816;SDS011;69411;45.656;11.740;2023-07-13T07:54:17;5.45;;;3.00;;
64816;SDS011;69411;45.656;11.740;2023-07-13T07:56:43;5.65;;;3.15;;
64816;SDS011;69411;45.656;11.740;2023-07-13T07:59:08;5.20;;;2.92;;
64816;SDS011;69411;45.656;11.740;2023-07-13T08:01:35;4.93;;;3.30;;
64816;SDS011;69411;45.656;11.740;2023-07-13T08:04:01;5.20;;;3.28;;
64816;SDS011;69411;45.656;11.740;2023-07-13T08:06:27;5.38;;;3.17;;
64816;SDS011;69411;45.656;11.740;2023-07-13T08:08:54;8.25;;;3.20;;
64816;SDS011;69411;45.656;11.740;2023-07-13T08:11:20;5.53;;;3.00;;
64816;SDS011;69411;45.656;11.740;2023-07-13T08:13:47;7.80;;;3.30;;
64816;SDS011;69411;45.656;11.740;2023-07-13T08:16:14;5.47;;;2.72;;
64816;SDS011;69411;45.656;11.740;2023-07-13T08:18:40;7.28;;;3.83;;
64816;SDS011;69411;45.656;11.740;2023-07-13T08:21:06;5.05;;;2.83;;
64816;SDS011;69411;45.656;11.740;2023-07-13T08:23:34;6.47;;;3.00;;
64816;SDS011;69411;45.656;11.740;2023-07-13T08:26:01;7.57;;;3.72;;
64816;SDS011;69411;45.656;11.740;2023-07-13T08:28:28;7.75;;;4.30;;
64816;SDS011;69411;45.656;11.740;2023-07-13T08:30:54;6.22;;;3.83;;
64816;SDS011;69411;45.656;11.740;2023-07-13T08:33:20;6.13;;;4.05;;
64816;SDS011;69411;45.656;11.740;2023-07-13T08:35:50;5.75;;;3.55;;
64816;SDS011;69411;45.656;11.740;2023-07-13T08:38:17;5.38;;;3.10;;
64816;SDS011;69411;45.656;11.740;2023-07-13T08:40:44;7.10;;;3.83;;
64816;SDS011;69411;45.656;11.740;2023-07-13T08:43:18;7.13;;;4.00;;
64816;SDS011;69411;45.656;11.740;2023-07-13T08:45:48;6.93;;;4.28;;
64816;SDS011;69411;45.656;11.740;2023-07-13T08:48:28;10.20;;;4.70;;
64816;SDS011;69411;45.656;11.740;2023-07-13T08:51:04;8.00;;;4.20;;
64816;SDS011;69411;45.656;11.740;2023-07-13T08:53:52;5.38;;;3.70;;
64816;SDS011;69411;45.656;11.740;2023-07-13T08:56:24;9.25;;;5.10;;
64816;SDS011;69411;45.656;11.740;2023-07-13T08:58:54;7.97;;;4.10;;
64816;SDS011;69411;45.656;11.740;2023-07-13T09:04:28;8.82;;;4.85;;
64816;SDS011;69411;45.656;11.740;2023-07-13T09:09:57;9.32;;;4.35;;
64816;SDS011;69411;45.656;11.740;2023-07-13T09:15:03;7.30;;;3.15;;
64816;SDS011;69411;45.656;11.740;2023-07-13T09:17:45;6.22;;;3.67;;
64816;SDS011;69411;45.656;11.740;2023-07-13T09:20:25;8.43;;;4.05;;
64816;SDS011;69411;45.656;11.740;2023-07-13T09:22:52;7.70;;;4.32;;
64816;SDS011;69411;45.656;11.740;2023-07-13T09:33:26;8.27;;;4.18;;
64816;SDS011;69411;45.656;11.740;2023-07-13T09:35:55;7.95;;;4.68;;
64816;SDS011;69411;45.656;11.740;2023-07-13T09:38:24;8.07;;;4.80;;
64816;SDS011;69411;45.656;11.740;2023-07-13T09:43:34;8.60;;;5.13;;
64816;SDS011;69411;45.656;11.740;2023-07-13T09:46:01;10.95;;;6.25;;
64816;SDS011;69411;45.656;11.740;2023-07-13T09:48:32;9.55;;;5.45;;
64816;SDS011;69411;45.656;11.740;2023-07-13T09:51:14;10.00;;;5.30;;
64816;SDS011;69411;45.656;11.740;2023-07-13T09:53:41;8.57;;;5.43;;
64816;SDS011;69411;45.656;11.740;2023-07-13T09:58:52;8.80;;;5.50;;
64816;SDS011;69411;45.656;11.740;2023-07-13T10:04:00;10.57;;;5.70;;
64816;SDS011;69411;45.656;11.740;2023-07-13T10:06:26;9.48;;;4.90;;
64816;SDS011;69411;45.656;11.740;2023-07-13T10:08:52;8.15;;;5.40;;
64816;SDS011;69411;45.656;11.740;2023-07-13T10:11:22;8.75;;;4.70;;
64816;SDS011;69411;45.656;11.740;2023-07-13T10:14:01;8.88;;;4.50;;
64816;SDS011;69411;45.656;11.740;2023-07-13T10:16:34;5.80;;;4.45;;
64816;SDS011;69411;45.656;11.740;2023-07-13T10:19:11;7.60;;;4.45;;
64816;SDS011;69411;45.656;11.740;2023-07-13T10:21:53;10.23;;;5.60;;
64816;SDS011;69411;45.656;11.740;2023-07-13T10:24:25;9.93;;;5.72;;
64816;SDS011;69411;45.656;11.740;2023-07-13T10:27:31;8.43;;;5.00;;
64816;SDS011;69411;45.656;11.740;2023-07-13T10:30:11;11.75;;;5.93;;
64816;SDS011;69411;45.656;11.740;2023-07-13T10:32:46;10.73;;;5.75;;
64816;SDS011;69411;45.656;11.740;2023-07-13T10:35:16;11.25;;;5.18;;
64816;SDS011;69411;45.656;11.740;2023-07-13T10:37:48;8.30;;;4.28;;
64816;SDS011;69411;45.656;11.740;2023-07-13T10:40:20;5.50;;;3.33;;
64816;SDS011;69411;45.656;11.740;2023-07-13T10:42:54;5.22;;;2.72;;
64816;SDS011;69411;45.656;11.740;2023-07-13T10:45:26;6.15;;;2.50;;
64816;SDS011;69411;45.656;11.740;2023-07-13T10:48:00;3.60;;;2.20;;
64816;SDS011;69411;45.656;11.740;2023-07-13T10:50:28;4.00;;;2.40;;
64816;SDS011;69411;45.656;11.740;2023-07-13T10:53:15;4.20;;;2.30;;
64816;SDS011;69411;45.656;11.740;2023-07-13T10:59:06;3.78;;;2.40;;
64816;SDS011;69411;45.656;11.740;2023-07-13T11:02:06;5.00;;;2.20;;
64816;SDS011;69411;45.656;11.740;2023-07-13T11:04:56;4.22;;;2.30;;
64816;SDS011;69411;45.656;11.740;2023-07-13T11:09:54;3.85;;;2.35;;
64816;SDS011;69411;45.656;11.740;2023-07-13T11:20:22;4.78;;;2.25;;
64816;SDS011;69411;45.656;11.740;2023-07-13T11:23:15;5.03;;;2.35;;
64816;SDS011;69411;45.656;11.740;2023-07-13T11:25:45;4.47;;;2.35;;
64816;SDS011;69411;45.656;11.740;2023-07-13T11:28:24;4.15;;;2.50;;
64816;SDS011;69411;45.656;11.740;2023-07-13T11:36:06;2.95;;;1.90;;
64816;SDS011;69411;45.656;11.740;2023-07-13T11:38:41;2.55;;;2.30;;
64816;SDS011;69411;45.656;11.740;2023-07-13T11:41:14;3.37;;;2.20;;
64816;SDS011;69411;45.656;11.740;2023-07-13T11:43:49;3.83;;;2.42;;
64816;SDS011;69411;45.656;11.740;2023-07-13T11:46:20;3.47;;;2.25;;
64816;SDS011;69411;45.656;11.740;2023-07-13T11:48:50;4.68;;;2.20;;
64816;SDS011;69411;45.656;11.740;2023-07-13T11:51:25;3.85;;;2.30;;
64816;SDS011;69411;45.656;11.740;2023-07-13T11:53:56;4.80;;;2.50;;
64816;SDS011;69411;45.656;11.740;2023-07-13T11:56:25;4.65;;;2.50;;
64816;SDS011;69411;45.656;11.740;2023-07-13T11:58:52;3.88;;;2.28;;
64816;SDS011;69411;45.656;11.740;2023-07-13T12:01:26;3.47;;;2.08;;
64816;SDS011;69411;45.656;11.740;2023-07-13T12:03:57;4.45;;;2.63;;
64816;SDS011;69411;45.656;11.740;2023-07-13T12:06:27;6.35;;;2.50;;
64816;SDS011;69411;45.656;11.740;2023-07-13T12:09:03;3.47;;;2.63;;
64816;SDS011;69411;45.656;11.740;2023-07-13T12:11:43;4.00;;;2.80;;
64816;SDS011;69411;45.656;11.740;2023-07-13T12:14:13;4.03;;;2.28;;
64816;SDS011;69411;45.656;11.740;2023-07-13T12:16:40;3.58;;;2.30;;
64816;SDS011;69411;45.656;11.740;2023-07-13T12:19:09;7.22;;;2.92;;
64816;SDS011;69411;45.656;11.740;2023-07-13T12:21:58;4.40;;;2.55;;
64816;SDS011;69411;45.656;11.740;2023-07-13T12:24:25;3.53;;;2.65;;
64816;SDS011;69411;45.656;11.740;2023-07-13T12:26:53;5.88;;;2.70;;
64816;SDS011;69411;45.656;11.740;2023-07-13T12:29:21;5.38;;;2.75;;
64816;SDS011;69411;45.656;11.740;2023-07-13T12:31:48;5.03;;;2.70;;
64816;SDS011;69411;45.656;11.740;2023-07-13T12:34:16;4.50;;;2.55;;
64816;SDS011;69411;45.656;11.740;2023-07-13T12:36:53;6.15;;;2.90;;
64816;SDS011;69411;45.656;11.740;2023-07-13T12:39:37;6.28;;;2.90;;
64816;SDS011;69411;45.656;11.740;2023-07-13T12:44:42;12.70;;;4.00;;
64816;SDS011;69411;45.656;11.740;2023-07-13T12:47:19;5.18;;;3.10;;
64816;SDS011;69411;45.656;11.740;2023-07-13T12:49:50;6.50;;;3.13;;
64816;SDS011;69411;45.656;11.740;2023-07-13T12:52:24;7.93;;;3.55;;
64816;SDS011;69411;45.656;11.740;2023-07-13T12:54:56;4.82;;;3.10;;
64816;SDS011;69411;45.656;11.740;2023-07-13T12:57:44;5.22;;;2.80;;
64816;SDS011;69411;45.656;11.740;2023-07-13T13:00:39;3.72;;;2.97;;
64816;SDS011;69411;45.656;11.740;2023-07-13T13:03:05;6.63;;;3.00;;
64816;SDS011;69411;45.656;11.740;2023-07-13T13:05:44;5.55;;;3.08;;
64816;SDS011;69411;45.656;11.740;2023-07-13T13:08:13;6.45;;;2.90;;
64816;SDS011;69411;45.656;11.740;2023-07-13T13:10:40;10.07;;;5.53;;
64816;SDS011;69411;45.656;11.740;2023-07-13T13:13:06;6.45;;;3.72;;
64816;SDS011;69411;45.656;11.740;2023-07-13T13:15:34;7.68;;;4.05;;
64816;SDS011;69411;45.656;11.740;2023-07-13T13:18:02;6.55;;;3.53;;
64816;SDS011;69411;45.656;11.740;2023-07-13T13:20:32;6.55;;;3.58;;
64816;SDS011;69411;45.656;11.740;2023-07-13T13:22:58;5.57;;;3.58;;
64816;SDS011;69411;45.656;11.740;2023-07-13T13:25:24;6.88;;;3.38;;
64816;SDS011;69411;45.656;11.740;2023-07-13T13:27:50;6.40;;;3.65;;
64816;SDS011;69411;45.656;11.740;2023-07-13T13:30:17;12.88;;;4.00;;
64816;SDS011;69411;45.656;11.740;2023-07-13T13:32:44;4.93;;;3.25;;
64816;SDS011;69411;45.656;11.740;2023-07-13T13:35:12;7.43;;;3.30;;
64816;SDS011;69411;45.656;11.740;2023-07-13T13:37:43;7.38;;;3.30;;
64816;SDS011;69411;45.656;11.740;2023-07-13T13:42:43;12.00;;;5.78;;
64816;SDS011;69411;45.656;11.740;2023-07-13T13:45:14;12.98;;;6.20;;
64816;SDS011;69411;45.656;11.740;2023-07-13T13:47:43;10.65;;;5.10;;
64816;SDS011;69411;45.656;11.740;2023-07-13T13:50:17;8.02;;;4.07;;
64816;SDS011;69411;45.656;11.740;2023-07-13T13:52:53;8.05;;;3.60;;
64816;SDS011;69411;45.656;11.740;2023-07-13T13:55:19;6.15;;;3.90;;
64816;SDS011;69411;45.656;11.740;2023-07-13T13:57:50;10.10;;;4.60;;
64816;SDS011;69411;45.656;11.740;2023-07-13T14:00:16;6.78;;;4.40;;
64816;SDS011;69411;45.656;11.740;2023-07-13T14:02:45;4.63;;;3.63;;
64816;SDS011;69411;45.656;11.740;2023-07-13T14:05:15;7.30;;;3.37;;
64816;SDS011;69411;45.656;11.740;2023-07-13T14:07:53;5.45;;;3.42;;
64816;SDS011;69411;45.656;11.740;2023-07-13T14:10:20;4.75;;;3.63;;
64816;SDS011;69411;45.656;11.740;2023-07-13T14:12:53;7.40;;;3.83;;
64816;SDS011;69411;45.656;11.740;2023-07-13T14:15:29;6.18;;;3.50;;
64816;SDS011;69411;45.656;11.740;2023-07-13T14:17:59;13.32;;;5.20;;
64816;SDS011;69411;45.656;11.740;2023-07-13T14:20:25;11.90;;;5.25;;
64816;SDS011;69411;45.656;11.740;2023-07-13T14:22:52;7.32;;;4.20;;
64816;SDS011;69411;45.656;11.740;2023-07-13T14:25:20;10.77;;;4.85;;
64816;SDS011;69411;45.656;11.740;2023-07-13T14:27:49;7.80;;;5.13;;
64816;SDS011;69411;45.656;11.740;2023-07-13T14:30:19;7.63;;;5.40;;
64816;SDS011;69411;45.656;11.740;2023-07-13T14:32:47;7.50;;;5.68;;
64816;SDS011;69411;45.656;11.740;2023-07-13T14:35:15;9.00;;;5.40;;
64816;SDS011;69411;45.656;11.740;2023-07-13T14:37:42;13.95;;;5.55;;
64816;SDS011;69411;45.656;11.740;2023-07-13T14:40:15;7.18;;;4.53;;
64816;SDS011;69411;45.656;11.740;2023-07-13T14:42:44;5.50;;;3.20;;
64816;SDS011;69411;45.656;11.740;2023-07-13T14:45:15;7.50;;;3.05;;
64816;SDS011;69411;45.656;11.740;2023-07-13T14:47:43;6.43;;;3.40;;
64816;SDS011;69411;45.656;11.740;2023-07-13T14:50:27;16.80;;;12.57;;
64816;SDS011;69411;45.656;11.740;2023-07-13T14:53:01;9.73;;;6.25;;
64816;SDS011;69411;45.656;11.740;2023-07-13T14:55:27;7.32;;;4.40;;
64816;SDS011;69411;45.656;11.740;2023-07-13T14:57:53;7.20;;;4.40;;
64816;SDS011;69411;45.656;11.740;2023-07-13T15:00:20;6.20;;;3.40;;
64816;SDS011;69411;45.656;11.740;2023-07-13T15:02:48;8.23;;;3.60;;
64816;SDS011;69411;45.656;11.740;2023-07-13T15:05:24;6.43;;;3.55;;
64816;SDS011;69411;45.656;11.740;2023-07-13T15:07:53;10.20;;;4.00;;
64816;SDS011;69411;45.656;11.740;2023-07-13T15:10:21;8.27;;;3.65;;
64816;SDS011;69411;45.656;11.740;2023-07-13T15:13:18;8.38;;;3.70;;
64816;SDS011;69411;45.656;11.740;2023-07-13T15:15:47;6.97;;;4.18;;
64816;SDS011;69411;45.656;11.740;2023-07-13T15:18:16;9.00;;;3.67;;
64816;SDS011;69411;45.656;11.740;2023-07-13T15:20:45;6.57;;;3.70;;
64816;SDS011;69411;45.656;11.740;2023-07-13T15:23:13;8.77;;;3.60;;
64816;SDS011;69411;45.656;11.740;2023-07-13T15:25:41;6.45;;;4.00;;
64816;SDS011;69411;45.656;11.740;2023-07-13T15:28:09;7.88;;;3.60;;
64816;SDS011;69411;45.656;11.740;2023-07-13T15:30:43;9.13;;;4.32;;
64816;SDS011;69411;45.656;11.740;2023-07-13T15:35:44;7.57;;;4.15;;
64816;SDS011;69411;45.656;11.740;2023-07-13T15:38:22;8.02;;;3.97;;
64816;SDS011;69411;45.656;11.740;2023-07-13T15:40:50;6.75;;;3.72;;